Time;durP1;ratioP1;P1;durP2;ratioP2;P2;SDS_P1;SDS_P2;PMS_P1;PMS_P2;Temp;Humidity;BMP_temperature;BMP_pressure;BME280_temperature;BME280_humidity;BME280_pressure;Samples;Min_cycle;Max_cycle;Signal;HPM_P1;HPM_P2
2021/04/15 00:00:51;;;;;;;12.47;7.53;;;0.80;99.90;;;;;;5017437;28;20721;-58
2021/04/15 00:03:26;;;;;;;16.50;6.83;;;0.80;99.90;;;;;;5003778;28;20108;-58
2021/04/15 00:05:53;;;;;;;11.20;7.43;;;0.70;99.90;;;;;;5013902;28;20037;-60
2021/04/15 00:08:20;;;;;;;10.10;6.70;;;0.80;99.90;;;;;;5017780;28;20056;-57
2021/04/15 00:10:49;;;;;;;9.63;7.43;;;0.80;99.90;;;;;;5012623;28;20030;-59
2021/04/15 00:13:20;;;;;;;12.37;7.53;;;0.80;99.90;;;;;;5013404;28;20076;-59
2021/04/15 00:15:45;;;;;;;15.73;6.93;;;0.80;99.90;;;;;;5010557;28;20092;-58
2021/04/15 00:18:11;;;;;;;11.70;7.03;;;0.80;99.90;;;;;;5006627;28;21051;-60
2021/04/15 00:20:37;;;;;;;9.07;6.10;;;0.90;99.90;;;;;;5013442;28;20072;-56
2021/04/15 00:23:03;;;;;;;10.93;6.57;;;1.00;99.90;;;;;;5011535;28;20399;-59
2021/04/15 00:25:28;;;;;;;8.63;6.50;;;1.00;99.90;;;;;;5019994;28;20051;-54
2021/04/15 00:27:54;;;;;;;13.20;6.90;;;0.90;99.90;;;;;;5013545;28;20396;-60
2021/04/15 00:30:22;;;;;;;11.83;6.40;;;0.90;99.90;;;;;;5015590;28;20435;-54
2021/04/15 00:32:48;;;;;;;11.10;6.47;;;0.90;99.90;;;;;;5021821;28;20106;-58
2021/04/15 00:35:15;;;;;;;9.87;6.43;;;0.90;99.90;;;;;;5012273;28;20122;-59
2021/04/15 00:37:41;;;;;;;10.47;6.57;;;1.00;99.90;;;;;;5008639;28;20920;-57
2021/04/15 00:40:09;;;;;;;10.83;7.23;;;0.90;99.90;;;;;;5009182;28;20033;-57
2021/04/15 00:42:36;;;;;;;10.37;7.30;;;0.90;99.90;;;;;;5014972;28;20029;-55
2021/04/15 00:45:28;;;;;;;9.27;7.27;;;0.80;99.90;;;;;;5012474;28;20026;-58
2021/04/15 00:48:25;;;;;;;13.37;6.80;;;0.80;99.90;;;;;;5012273;28;20067;-59
2021/04/15 00:50:56;;;;;;;12.43;6.77;;;0.70;99.90;;;;;;5008256;28;20166;-60
2021/04/15 00:53:26;;;;;;;14.07;6.97;;;0.60;99.90;;;;;;5012771;28;20029;-60
2021/04/15 00:55:53;;;;;;;11.73;8.50;;;0.50;99.90;;;;;;5006256;28;20036;-58
2021/04/15 00:58:20;;;;;;;12.33;7.37;;;0.40;99.90;;;;;;5009688;28;20052;-57
2021/04/15 01:00:46;;;;;;;13.00;8.17;;;0.40;99.90;;;;;;5005248;28;20030;-58
2021/04/15 01:03:11;;;;;;;13.37;8.27;;;0.30;99.90;;;;;;5013890;28;20092;-57
2021/04/15 01:05:43;;;;;;;13.17;7.83;;;0.20;99.90;;;;;;5012435;28;20041;-60
2021/04/15 01:08:10;;;;;;;11.70;7.33;;;0.10;99.90;;;;;;5016949;28;20032;-53
2021/04/15 01:10:42;;;;;;;13.83;8.40;;;0.00;99.90;;;;;;5016280;28;20026;-58
2021/04/15 01:13:11;;;;;;;15.03;8.63;;;0.00;99.90;;;;;;5023782;28;20089;-61
2021/04/15 01:15:52;;;;;;;13.67;8.53;;;-0.10;99.90;;;;;;5018269;28;20033;-59
2021/04/15 01:18:22;;;;;;;13.03;9.10;;;-0.20;99.90;;;;;;5007073;28;20494;-61
2021/04/15 01:21:06;;;;;;;16.40;9.17;;;-0.30;99.90;;;;;;5009190;28;20029;-58
2021/04/15 01:23:40;;;;;;;16.80;9.52;;;-0.30;99.90;;;;;;5006837;28;20487;-59
2021/04/15 01:26:38;;;;;;;14.40;9.90;;;-0.30;99.90;;;;;;5020593;28;20034;-58
2021/04/15 01:29:22;;;;;;;15.37;9.13;;;-0.40;99.90;;;;;;5020275;28;20083;-59
2021/04/15 01:32:11;;;;;;;15.07;9.52;;;-0.40;99.90;;;;;;5022491;28;20040;-56
2021/04/15 01:34:52;;;;;;;13.37;9.37;;;-0.50;99.90;;;;;;5016870;28;20026;-59
2021/04/15 01:37:25;;;;;;;19.40;10.27;;;-0.50;99.90;;;;;;5009843;28;20037;-60
2021/04/15 01:40:08;;;;;;;18.73;9.83;;;-0.60;99.90;;;;;;5007854;28;20021;-58
2021/04/15 01:42:44;;;;;;;17.20;10.93;;;-0.60;99.90;;;;;;5020332;28;20037;-58
2021/04/15 01:45:11;;;;;;;19.57;11.17;;;-0.60;99.90;;;;;;5012822;28;20403;-60
2021/04/15 01:48:08;;;;;;;21.20;11.70;;;-0.60;99.90;;;;;;5010126;28;20542;-56
2021/04/15 01:50:44;;;;;;;22.27;11.80;;;-0.60;99.90;;;;;;5006118;28;20538;-60
2021/04/15 01:53:21;;;;;;;18.53;10.93;;;-0.60;99.90;;;;;;5009785;28;20018;-57
2021/04/15 01:56:24;;;;;;;21.20;12.07;;;-0.60;99.90;;;;;;5016842;28;20036;-57
2021/04/15 01:59:11;;;;;;;18.93;11.00;;;-0.60;99.90;;;;;;5003244;28;20522;-53
2021/04/15 02:01:44;;;;;;;16.43;11.27;;;-0.60;99.90;;;;;;5017698;28;20034;-59
2021/04/15 02:04:15;;;;;;;19.15;11.45;;;-0.60;99.90;;;;;;4999868;28;20045;-58
2021/04/15 02:06:44;;;;;;;21.70;13.10;;;-0.60;99.90;;;;;;4997780;28;20070;-58
2021/04/15 02:09:13;;;;;;;20.03;11.77;;;-0.60;99.90;;;;;;5008810;28;20039;-59
2021/04/15 02:11:48;;;;;;;24.00;12.10;;;-0.60;99.90;;;;;;5015398;28;20029;-59
2021/04/15 02:14:22;;;;;;;18.80;12.43;;;-0.60;99.90;;;;;;5007758;28;20422;-56
2021/04/15 02:16:51;;;;;;;21.73;12.13;;;-0.60;99.90;;;;;;5015655;28;20030;-60
2021/04/15 02:19:18;;;;;;;19.93;11.97;;;-0.60;99.90;;;;;;5009350;28;20034;-56
2021/04/15 02:22:07;;;;;;;19.13;12.43;;;-0.70;99.90;;;;;;5001527;28;20088;-60
2021/04/15 02:24:43;;;;;;;20.60;13.90;;;-0.70;99.90;;;;;;5018873;28;20068;-60
2021/04/15 02:27:23;;;;;;;24.57;12.97;;;-0.70;99.90;;;;;;5020894;28;20127;-56
2021/04/15 02:29:57;;;;;;;25.00;13.73;;;-0.70;99.90;;;;;;5016128;28;20068;-57
2021/04/15 02:46:15;;;;;;;18.20;12.83;;;-1.00;99.90;;;;;;5014902;28;20513;-58
2021/04/15 02:48:42;;;;;;;22.93;12.63;;;-1.00;99.90;;;;;;5004765;28;20029;-59
2021/04/15 02:51:18;;;;;;;25.40;14.17;;;-1.00;99.90;;;;;;5011712;28;20582;-57
2021/04/15 02:53:52;;;;;;;21.97;12.83;;;-1.10;99.90;;;;;;5017117;28;20097;-55
2021/04/15 02:56:32;;;;;;;24.50;13.50;;;-1.10;99.90;;;;;;5010028;28;20037;-58
2021/04/15 02:59:06;;;;;;;25.57;14.13;;;-1.10;99.90;;;;;;5013711;28;20029;-57
2021/04/15 03:01:35;;;;;;;;;;;-1.10;99.90;;;;;;5010030;28;20061;-58
2021/04/15 03:04:01;;;;;;;28.60;14.23;;;-1.10;99.90;;;;;;5007079;28;19963;-60
2021/04/15 03:06:32;;;;;;;25.53;14.03;;;-1.00;99.90;;;;;;5007421;28;20120;-59
2021/04/15 03:09:05;;;;;;;26.77;14.57;;;-1.00;99.90;;;;;;5014507;28;20025;-58
2021/04/15 03:11:42;;;;;;;25.03;14.87;;;-1.00;99.90;;;;;;5021042;28;20026;-57
2021/04/15 03:14:12;;;;;;;26.60;14.37;;;-0.90;99.90;;;;;;5022312;28;20025;-59
2021/04/15 03:16:43;;;;;;;27.50;15.87;;;-0.90;99.90;;;;;;5016700;28;20033;-56
2021/04/15 03:19:44;;;;;;;24.97;14.03;;;-0.90;99.90;;;;;;5019915;28;20033;-59
2021/04/15 03:22:18;;;;;;;26.63;14.63;;;-0.80;99.90;;;;;;4980109;28;20029;-58
2021/04/15 03:24:47;;;;;;;26.70;16.60;;;-0.70;99.90;;;;;;5013085;28;20033;-55
2021/04/15 03:27:26;;;;;;;31.30;16.33;;;-0.70;99.90;;;;;;5016154;28;20038;-58
2021/04/15 03:30:11;;;;;;;28.60;15.97;;;-0.60;99.90;;;;;;5014584;28;20026;-59
2021/04/15 03:32:58;;;;;;;26.13;16.27;;;-0.70;99.90;;;;;;5008816;28;20034;-57
2021/04/15 03:35:36;;;;;;;25.10;14.17;;;-0.70;99.90;;;;;;5007525;28;20061;-57
2021/04/15 03:38:31;;;;;;;27.37;16.00;;;-0.70;99.90;;;;;;5017482;28;20026;-56
2021/04/15 03:41:13;;;;;;;20.77;13.83;;;-0.80;99.90;;;;;;5013418;28;20042;-59
2021/04/15 03:43:46;;;;;;;24.90;14.13;;;-0.80;99.90;;;;;;5014219;28;20026;-58
2021/04/15 03:46:27;;;;;;;22.17;14.83;;;-0.90;99.90;;;;;;5004051;28;20025;-60
2021/04/15 03:48:59;;;;;;;22.23;13.30;;;-0.90;99.90;;;;;;5007657;28;20478;-58
2021/04/15 03:51:35;;;;;;;22.73;14.17;;;-0.90;99.90;;;;;;5013008;28;20430;-61
2021/04/15 03:54:04;;;;;;;20.47;13.87;;;-0.90;99.90;;;;;;5011249;28;20026;-57
2021/04/15 03:56:45;;;;;;;22.40;13.57;;;-0.90;99.90;;;;;;5003411;28;20048;-57
2021/04/15 03:59:17;;;;;;;20.37;13.47;;;-0.80;99.90;;;;;;5023396;28;20029;-58
2021/04/15 04:01:48;;;;;;;24.37;13.90;;;-0.80;99.90;;;;;;5020372;28;20127;-56
2021/04/15 04:04:31;;;;;;;24.17;14.40;;;-0.80;99.90;;;;;;5014954;28;20040;-53
2021/04/15 04:07:01;;;;;;;21.50;13.35;;;-0.80;99.90;;;;;;5021777;28;20030;-54
2021/04/15 04:09:38;;;;;;;23.90;13.53;;;-0.80;99.90;;;;;;5021903;28;20057;-57
2021/04/15 04:12:07;;;;;;;21.03;13.30;;;-0.70;99.90;;;;;;5021393;28;20018;-52
2021/04/15 04:14:41;;;;;;;24.17;16.00;;;-0.60;99.90;;;;;;4999371;28;20084;-59
2021/04/15 04:17:09;;;;;;;;;;;-0.50;99.90;;;;;;5021201;28;20033;-56
2021/04/15 04:19:43;;;;;;;20.60;13.27;;;-0.40;99.90;;;;;;5022848;28;20389;-51
2021/04/15 04:22:19;;;;;;;24.58;14.40;;;-0.40;99.90;;;;;;5020109;28;20048;-57
2021/04/15 04:24:52;;;;;;;25.07;14.30;;;-0.40;99.90;;;;;;5012906;28;20491;-58
2021/04/15 04:27:33;;;;;;;23.15;15.05;;;-0.40;99.90;;;;;;5023244;28;20693;-56
2021/04/15 04:30:08;;;;;;;25.37;13.57;;;-0.30;99.90;;;;;;5018901;28;20403;-59
2021/04/15 04:32:34;;;;;;;;;;;-0.30;99.90;;;;;;5009661;28;20026;-60
2021/04/15 04:35:02;;;;;;;24.13;13.50;;;-0.30;99.90;;;;;;5009796;28;19913;-60
2021/04/15 04:37:39;;;;;;;21.00;13.13;;;-0.20;99.90;;;;;;4976228;28;20107;-61
2021/04/15 04:40:28;;;;;;;20.37;13.37;;;-0.20;99.90;;;;;;5010579;28;20582;-59
2021/04/15 04:43:02;;;;;;;19.87;13.73;;;-0.20;99.90;;;;;;5011670;28;20030;-57
2021/04/15 04:45:29;;;;;;;17.52;11.75;;;-0.20;99.90;;;;;;5012594;28;20491;-59
2021/04/15 04:48:03;;;;;;;20.17;13.70;;;-0.20;99.90;;;;;;5010624;28;20053;-60
2021/04/15 04:50:41;;;;;;;20.53;13.57;;;-0.20;99.90;;;;;;5011199;28;20033;-57
2021/04/15 04:53:12;;;;;;;22.40;13.63;;;-0.10;99.90;;;;;;5009126;28;20041;-58
2021/04/15 04:55:56;;;;;;;23.40;12.67;;;-0.10;99.90;;;;;;5010035;28;20045;-56
2021/04/15 04:58:22;;;;;;;20.58;12.18;;;-0.10;99.90;;;;;;5013736;28;20665;-57
2021/04/15 05:00:51;;;;;;;18.60;12.27;;;-0.10;99.90;;;;;;5009120;28;20125;-57
2021/04/15 05:03:22;;;;;;;22.23;12.67;;;0.00;99.90;;;;;;5008637;28;20686;-58
2021/04/15 05:05:48;;;;;;;18.37;11.70;;;0.00;99.90;;;;;;5007552;28;20485;-58
2021/04/15 05:08:22;;;;;;;23.93;12.07;;;0.10;99.90;;;;;;5010442;28;20129;-60
2021/04/15 05:10:52;;;;;;;23.15;13.45;;;0.30;99.90;;;;;;5018332;28;20451;-60
2021/04/15 05:13:29;;;;;;;18.00;11.30;;;0.50;99.90;;;;;;5011372;28;20025;-59
2021/04/15 05:16:00;;;;;;;18.17;11.27;;;0.60;99.90;;;;;;5010279;28;20073;-61
2021/04/15 05:18:26;;;;;;;18.03;10.37;;;0.70;99.90;;;;;;5020045;28;20033;-62
2021/04/15 05:21:10;;;;;;;15.23;10.65;;;0.80;99.90;;;;;;5007873;28;20387;-58
2021/04/15 05:23:58;;;;;;;20.75;10.27;;;1.10;99.90;;;;;;5006009;28;20487;-59
2021/04/15 05:26:31;;;;;;;13.43;9.65;;;1.70;99.90;;;;;;5004400;28;20038;-60
2021/04/15 05:28:59;;;;;;;11.70;7.87;;;2.20;99.90;;;;;;5009790;28;20050;-59
2021/04/15 05:31:29;;;;;;;10.43;7.32;;;2.50;99.90;;;;;;5015216;28;20025;-62
2021/04/15 05:33:58;;;;;;;10.23;6.95;;;2.80;99.90;;;;;;5002962;28;20021;-62
2021/04/15 05:36:29;;;;;;;14.23;6.65;;;3.10;99.90;;;;;;5014352;28;20521;-59
2021/04/15 05:38:57;;;;;;;11.48;6.00;;;3.50;99.90;;;;;;5002564;28;20042;-58
2021/04/15 05:41:27;;;;;;;9.88;6.65;;;3.50;99.90;;;;;;5021412;28;20083;-57
2021/04/15 05:43:58;;;;;;;13.88;6.25;;;3.30;99.90;;;;;;5011915;28;20110;-60
2021/04/15 05:46:27;;;;;;;14.40;7.97;;;3.00;99.90;;;;;;5019137;28;20123;-61
2021/04/15 05:49:00;;;;;;;15.10;7.47;;;2.80;99.90;;;;;;5016675;28;20596;-58
2021/04/15 05:51:49;;;;;;;13.82;8.25;;;2.80;99.90;;;;;;5011880;28;20426;-61
2021/04/15 05:54:17;;;;;;;15.45;9.50;;;2.80;99.90;;;;;;5006350;28;20038;-61
2021/04/15 05:56:53;;;;;;;11.55;8.90;;;2.60;99.90;;;;;;5018402;28;20018;-59
2021/04/15 05:59:46;;;;;;;17.50;9.00;;;2.50;99.90;;;;;;5008395;28;20037;-62
2021/04/15 06:02:36;;;;;;;15.38;8.38;;;2.50;99.90;;;;;;5005420;28;20377;-59
2021/04/15 06:05:11;;;;;;;10.73;7.32;;;2.60;99.90;;;;;;5009033;28;20054;-56
2021/04/15 06:07:39;;;;;;;11.95;7.10;;;3.20;99.90;;;;;;5013784;28;20092;-60
2021/04/15 06:10:05;;;;;;;11.82;7.43;;;4.20;99.90;;;;;;5022166;28;20810;-62
2021/04/15 06:12:46;;;;;;;15.23;6.97;;;5.10;99.90;;;;;;5024694;28;20104;-60
2021/04/15 06:15:16;;;;;;;9.55;6.95;;;6.40;99.90;;;;;;5015898;28;20025;-59
2021/04/15 06:18:08;;;;;;;10.90;6.90;;;7.40;99.90;;;;;;5011970;28;20064;-61
2021/04/15 06:20:42;;;;;;;11.20;7.75;;;8.60;99.90;;;;;;5007956;28;20033;-63
2021/04/15 06:23:18;;;;;;;11.55;8.38;;;9.10;98.70;;;;;;5011535;28;20037;-61
2021/04/15 06:25:46;;;;;;;12.75;10.65;;;10.10;97.60;;;;;;5012080;28;20555;-63
2021/04/15 06:28:21;;;;;;;9.38;7.80;;;11.30;93.90;;;;;;5012080;28;20021;-62
2021/04/15 06:31:06;;;;;;;14.75;8.32;;;12.00;90.30;;;;;;5020263;28;20042;-62
2021/04/15 06:33:33;;;;;;;9.05;7.43;;;12.50;89.00;;;;;;5012292;28;20029;-59
2021/04/15 06:36:00;;;;;;;8.80;5.97;;;13.10;83.60;;;;;;5006553;28;20033;-61
2021/04/15 06:38:47;;;;;;;9.20;6.50;;;14.10;73.20;;;;;;5003207;28;20057;-61
2021/04/15 06:41:41;;;;;;;9.52;6.20;;;14.20;70.60;;;;;;5008935;28;20617;-61
2021/04/15 06:44:34;;;;;;;7.47;5.95;;;14.50;70.70;;;;;;5012633;28;20676;-59
2021/04/15 06:47:24;;;;;;;9.47;5.60;;;13.80;68.30;;;;;;5008691;28;20030;-60
2021/04/15 06:50:06;;;;;;;8.77;5.40;;;14.00;68.10;;;;;;5012486;28;20032;-60
2021/04/15 06:53:09;;;;;;;10.27;5.68;;;13.90;70.60;;;;;;5009603;28;20169;-61
2021/04/15 06:56:12;;;;;;;9.98;5.53;;;13.90;67.70;;;;;;5016387;28;20033;-61
2021/04/15 06:58:55;;;;;;;10.77;6.22;;;14.30;66.70;;;;;;5007318;28;20034;-61
2021/04/15 07:01:27;;;;;;;8.75;5.43;;;14.80;65.80;;;;;;5012717;28;20036;-62
2021/04/15 07:04:00;;;;;;;7.03;5.88;;;15.70;60.40;;;;;;5009038;28;20545;-63
2021/04/15 07:06:48;;;;;;;10.10;5.70;;;15.50;58.30;;;;;;5007684;28;20037;-61
2021/04/15 07:09:35;;;;;;;8.70;6.28;;;14.40;60.00;;;;;;5011665;28;20491;-61
2021/04/15 07:12:42;;;;;;;12.00;5.82;;;14.20;63.10;;;;;;5020162;28;20395;-62
2021/04/15 07:15:39;;;;;;;8.20;5.20;;;14.90;63.10;;;;;;5011914;28;20024;-61
2021/04/15 07:18:20;;;;;;;7.53;5.80;;;16.10;56.50;;;;;;5005588;28;20022;-61
2021/04/15 07:21:03;;;;;;;6.32;5.32;;;15.70;57.00;;;;;;5015803;28;20023;-62
2021/04/15 07:24:03;;;;;;;8.20;5.53;;;16.30;57.50;;;;;;5011731;28;20025;-61
2021/04/15 07:26:31;;;;;;;6.93;5.30;;;17.10;53.30;;;;;;5020409;28;20037;-63
2021/04/15 07:29:15;;;;;;;9.98;5.18;;;16.30;52.10;;;;;;5022888;28;20017;-62
2021/04/15 07:32:05;;;;;;;9.30;6.22;;;16.60;52.00;;;;;;5023382;28;20382;-55
2021/04/15 07:34:57;;;;;;;6.78;5.18;;;17.10;52.00;;;;;;5009037;28;20049;-62
2021/04/15 07:37:45;;;;;;;7.40;5.22;;;17.40;50.20;;;;;;5014649;28;20026;-63
2021/04/15 07:40:35;;;;;;;9.25;5.25;;;16.30;50.50;;;;;;5002323;28;20443;-62
2021/04/15 07:43:25;;;;;;;8.18;5.95;;;16.60;51.50;;;;;;5020173;28;20419;-61
2021/04/15 07:46:10;;;;;;;7.88;5.90;;;16.00;52.20;;;;;;5018431;28;20034;-62
2021/04/15 07:48:47;;;;;;;5.82;4.45;;;16.50;50.50;;;;;;5022363;28;20029;-63
2021/04/15 07:51:38;;;;;;;8.15;4.82;;;16.80;52.60;;;;;;5011841;28;20091;-63
2021/04/15 07:54:35;;;;;;;7.45;5.10;;;17.60;47.50;;;;;;5010948;28;20072;-62
2021/04/15 07:57:25;;;;;;;7.53;4.68;;;17.20;48.10;;;;;;5020911;28;20080;-61
2021/04/15 08:00:13;;;;;;;9.80;5.05;;;16.70;49.40;;;;;;5019872;28;20057;-62
2021/04/15 08:02:47;;;;;;;6.45;4.75;;;17.50;49.00;;;;;;5020949;28;20131;-62
2021/04/15 08:05:21;;;;;;;11.57;5.57;;;17.30;47.20;;;;;;5019303;28;20057;-62
2021/04/15 08:08:16;;;;;;;9.20;5.80;;;16.80;49.50;;;;;;5014620;28;20097;-60
2021/04/15 08:11:10;;;;;;;7.88;5.25;;;16.00;49.30;;;;;;4969386;28;20108;-63
2021/04/15 08:14:11;;;;;;;10.40;4.97;;;16.40;48.70;;;;;;5008923;28;20388;-63
2021/04/15 08:16:55;;;;;;;9.85;5.57;;;17.30;46.90;;;;;;4957391;28;20038;-63
2021/04/15 08:19:49;;;;;;;6.03;4.38;;;16.50;48.50;;;;;;5008457;28;20469;-64
2021/04/15 08:22:34;;;;;;;8.32;5.07;;;17.80;46.70;;;;;;5009563;28;20487;-62
2021/04/15 08:25:22;;;;;;;13.20;5.07;;;17.30;47.20;;;;;;5012774;28;20672;-63
2021/04/15 08:28:05;;;;;;;11.90;5.70;;;17.00;46.80;;;;;;5021293;28;20028;-63
2021/04/15 08:30:42;;;;;;;6.00;4.20;;;16.50;48.10;;;;;;5007233;28;20044;-62
2021/04/15 08:33:11;;;;;;;12.75;5.40;;;17.60;48.70;;;;;;5013926;28;20064;-60
2021/04/15 08:36:01;;;;;;;8.77;4.47;;;18.10;45.40;;;;;;5009552;28;20030;-63
2021/04/15 08:38:54;;;;;;;7.63;5.30;;;18.70;45.50;;;;;;5007360;28;20459;-62
2021/04/15 08:41:48;;;;;;;11.75;5.18;;;18.10;45.30;;;;;;5014161;28;20037;-63
2021/04/15 08:44:35;;;;;;;11.63;4.80;;;16.30;47.40;;;;;;4978313;28;20548;-62
2021/04/15 08:47:25;;;;;;;8.63;4.45;;;17.00;47.80;;;;;;5013849;28;20402;-62
2021/04/15 08:50:18;;;;;;;6.78;4.10;;;17.30;46.70;;;;;;4997806;28;20046;-60
2021/04/15 08:52:54;;;;;;;7.40;4.27;;;15.90;46.20;;;;;;5011943;28;20104;-61
2021/04/15 08:55:31;;;;;;;8.80;5.45;;;15.60;49.40;;;;;;5017534;28;20319;-63
2021/04/15 08:58:09;;;;;;;6.88;4.70;;;15.20;50.20;;;;;;5020505;28;20564;-62
2021/04/15 09:01:04;;;;;;;12.30;5.57;;;14.30;52.10;;;;;;5006869;28;20021;-61
2021/04/15 09:03:47;;;;;;;6.78;3.90;;;13.90;52.00;;;;;;5008914;28;20030;-61
2021/04/15 09:06:44;;;;;;;5.80;4.95;;;14.30;53.00;;;;;;5014463;28;20036;-64
2021/04/15 09:09:30;;;;;;;8.88;5.88;;;14.90;51.30;;;;;;5014798;28;20028;-63
2021/04/15 09:12:21;;;;;;;8.18;5.60;;;14.60;51.20;;;;;;5018549;28;20485;-61
2021/04/15 09:15:07;;;;;;;12.80;5.68;;;14.20;52.20;;;;;;5006765;28;20096;-62
2021/04/15 09:17:38;;;;;;;7.45;5.15;;;12.60;57.50;;;;;;5005085;28;20302;-61
2021/04/15 09:20:06;;;;;;;8.65;4.80;;;12.40;59.60;;;;;;5006045;28;20132;-62
2021/04/15 09:23:16;;;;;;;8.75;5.28;;;12.00;60.70;;;;;;5011345;28;20025;-62
2021/04/15 09:26:26;;;;;;;7.20;4.70;;;11.70;62.60;;;;;;5013488;28;20026;-62
2021/04/15 09:29:07;;;;;;;10.23;4.80;;;11.10;65.90;;;;;;4974894;28;20048;-61
2021/04/15 09:31:50;;;;;;;11.00;6.85;;;10.70;70.70;;;;;;5017936;28;20427;-62
2021/04/15 09:34:53;;;;;;;6.63;4.60;;;10.60;74.70;;;;;;5010557;28;20490;-61
2021/04/15 09:37:31;;;;;;;7.88;3.70;;;10.50;75.70;;;;;;5008851;28;20030;-62
2021/04/15 09:40:02;;;;;;;11.15;3.63;;;10.30;74.30;;;;;;5004783;28;20026;-62
2021/04/15 09:42:37;;;;;;;7.30;3.53;;;10.20;74.50;;;;;;5003975;28;20503;-61
2021/04/15 09:45:13;;;;;;;8.32;3.20;;;10.30;74.40;;;;;;5007601;28;20499;-61
2021/04/15 09:48:06;;;;;;;3.90;2.78;;;10.20;72.40;;;;;;5002193;28;20462;-62
2021/04/15 09:50:56;;;;;;;7.55;3.35;;;10.20;75.00;;;;;;5002294;28;20589;-62
2021/04/15 09:53:40;;;;;;;5.90;2.83;;;10.10;77.70;;;;;;5001328;28;20038;-60
2021/04/15 09:56:14;;;;;;;6.53;4.00;;;9.80;75.60;;;;;;4999583;28;20125;-62
2021/04/15 09:59:06;;;;;;;5.93;3.05;;;10.50;74.40;;;;;;5003911;28;20026;-62
2021/04/15 10:01:39;;;;;;;6.18;2.97;;;11.50;67.20;;;;;;5004787;28;20523;-61
2021/04/15 10:04:25;;;;;;;6.93;3.00;;;12.20;66.10;;;;;;5017272;28;20037;-62
2021/04/15 10:06:57;;;;;;;5.82;2.92;;;11.50;62.50;;;;;;5013658;28;20125;-61
2021/04/15 10:09:34;;;;;;;6.32;2.42;;;11.30;63.50;;;;;;5017010;28;20018;-60
2021/04/15 10:12:15;;;;;;;6.68;3.28;;;11.30;64.40;;;;;;5008552;28;20026;-61
2021/04/15 10:14:58;;;;;;;5.20;2.35;;;11.20;61.50;;;;;;5006614;28;20516;-62
2021/04/15 10:17:32;;;;;;;5.03;2.10;;;11.30;60.10;;;;;;5014684;28;20044;-60
2021/04/15 10:20:14;;;;;;;6.18;2.55;;;11.20;60.20;;;;;;5001597;28;20077;-60
2021/04/15 10:22:49;;;;;;;7.25;2.38;;;11.20;64.30;;;;;;5002532;28;20080;-63
2021/04/15 10:25:21;;;;;;;10.40;2.22;;;11.40;58.70;;;;;;5003071;28;20499;-61
2021/04/15 10:28:11;;;;;;;4.43;2.00;;;11.20;59.10;;;;;;5018522;28;20037;-62
2021/04/15 10:30:56;;;;;;;8.45;3.03;;;10.70;62.60;;;;;;5017654;28;20030;-61
2021/04/15 10:33:53;;;;;;;4.13;2.25;;;10.60;64.50;;;;;;5007412;28;20053;-62
2021/04/15 10:36:40;;;;;;;3.85;2.15;;;10.60;67.50;;;;;;5000355;28;20507;-62
2021/04/15 10:39:42;;;;;;;5.78;2.30;;;10.70;66.70;;;;;;5008063;28;20030;-60
2021/04/15 10:42:30;;;;;;;3.70;1.88;;;10.60;64.30;;;;;;5012787;28;20025;-63
2021/04/15 10:44:58;;;;;;;7.55;1.90;;;10.60;63.20;;;;;;5014086;28;20030;-60
2021/04/15 10:47:27;;;;;;;5.65;2.30;;;10.50;62.30;;;;;;5016254;28;20030;-61
2021/04/15 10:50:12;;;;;;;6.47;2.22;;;10.50;60.80;;;;;;5000220;28;20029;-61
2021/04/15 10:52:52;;;;;;;3.75;1.73;;;10.50;60.20;;;;;;5000315;28;20105;-60
2021/04/15 10:55:20;;;;;;;3.38;1.58;;;10.40;58.80;;;;;;4992055;28;20053;-61
2021/04/15 10:57:47;;;;;;;6.10;1.95;;;10.50;58.30;;;;;;5020235;28;20026;-63
2021/04/15 11:00:32;;;;;;;3.00;1.55;;;10.40;60.90;;;;;;5020839;28;20108;-61
2021/04/15 11:03:12;;;;;;;6.70;1.88;;;10.30;57.90;;;;;;5018916;28;20373;-61
2021/04/15 11:05:41;;;;;;;2.08;1.50;;;10.20;58.50;;;;;;5004441;28;20026;-62
2021/04/15 11:08:10;;;;;;;2.58;1.60;;;10.20;58.30;;;;;;5005085;28;20025;-62
2021/04/15 11:10:36;;;;;;;8.63;1.83;;;9.90;58.80;;;;;;5007400;28;20030;-61
2021/04/15 11:13:18;;;;;;;4.43;1.98;;;9.80;60.30;;;;;;5025165;28;20033;-61
2021/04/15 11:15:53;;;;;;;8.07;1.75;;;9.90;61.20;;;;;;5014591;28;20033;-61
2021/04/15 11:18:30;;;;;;;3.83;1.90;;;9.80;61.80;;;;;;5010178;28;20032;-61
2021/04/15 11:21:20;;;;;;;3.40;1.92;;;9.80;63.10;;;;;;5007161;28;20505;-61
2021/04/15 11:23:48;;;;;;;4.25;2.00;;;10.20;62.60;;;;;;5006230;28;20034;-61
2021/04/15 11:26:42;;;;;;;3.92;1.80;;;10.40;58.20;;;;;;5015748;28;20515;-60
2021/04/15 11:29:36;;;;;;;4.68;2.38;;;10.40;61.00;;;;;;5023787;28;20049;-62
2021/04/15 11:32:21;;;;;;;3.92;1.92;;;10.60;59.80;;;;;;5022816;28;20426;-61
2021/04/15 11:35:02;;;;;;;3.65;1.85;;;11.10;57.60;;;;;;5004913;28;20071;-60
2021/04/15 11:37:28;;;;;;;6.72;1.80;;;11.00;59.50;;;;;;5003570;28;20076;-61
2021/04/15 11:40:14;;;;;;;6.57;1.98;;;11.60;59.50;;;;;;5008358;28;20026;-61
2021/04/15 11:42:40;;;;;;;5.78;2.28;;;12.00;55.50;;;;;;5018722;28;20017;-61
2021/04/15 11:45:06;;;;;;;7.32;2.08;;;12.10;56.80;;;;;;5026917;28;20067;-62
2021/04/15 11:47:34;;;;;;;5.60;1.83;;;12.30;56.80;;;;;;5021026;28;20065;-59
2021/04/15 11:50:12;;;;;;;5.13;2.10;;;12.20;54.00;;;;;;5004558;28;20029;-60
2021/04/15 11:52:41;;;;;;;2.88;2.20;;;11.90;54.70;;;;;;5004952;28;20100;-60
2021/04/15 11:55:27;;;;;;;4.78;2.58;;;11.50;57.90;;;;;;4988387;28;20046;-62
2021/04/15 11:58:02;;;;;;;4.60;2.10;;;11.60;57.10;;;;;;5014382;28;20032;-60
2021/04/15 12:00:40;;;;;;;5.57;2.10;;;11.60;59.50;;;;;;5012746;28;20018;-61
2021/04/15 12:03:17;;;;;;;4.75;2.22;;;11.60;55.50;;;;;;5011804;28;20029;-61
2021/04/15 12:05:45;;;;;;;7.82;2.00;;;11.50;55.50;;;;;;5004430;28;20040;-60
2021/04/15 12:08:31;;;;;;;3.88;1.98;;;11.50;56.50;;;;;;5003217;28;20038;-62
2021/04/15 12:11:21;;;;;;;5.85;2.05;;;11.50;56.40;;;;;;5009417;28;20021;-60
2021/04/15 12:13:57;;;;;;;6.28;1.85;;;11.40;54.30;;;;;;5010634;28;20034;-62
2021/04/15 12:16:40;;;;;;;2.92;1.50;;;11.20;54.30;;;;;;5007217;28;20033;-61
2021/04/15 12:19:21;;;;;;;4.53;1.90;;;11.00;55.20;;;;;;5007707;28;20026;-62
2021/04/15 12:22:08;;;;;;;5.57;2.03;;;10.70;54.20;;;;;;5003990;28;20018;-63
2021/04/15 12:24:37;;;;;;;4.30;2.00;;;10.80;54.50;;;;;;5002380;28;20310;-62
2021/04/15 12:27:13;;;;;;;4.68;1.70;;;10.70;54.70;;;;;;5011134;28;20479;-63
2021/04/15 12:30:01;;;;;;;5.47;2.17;;;10.50;55.20;;;;;;5015424;28;20061;-63
2021/04/15 12:32:42;;;;;;;6.00;2.00;;;10.30;56.40;;;;;;5006965;28;20029;-58
2021/04/15 12:35:20;;;;;;;6.38;2.40;;;10.30;57.10;;;;;;5002220;28;20030;-62
2021/04/15 12:38:17;;;;;;;3.45;1.85;;;10.20;59.90;;;;;;5002698;28;20109;-61
2021/04/15 12:40:46;;;;;;;4.50;2.10;;;10.40;58.10;;;;;;4961949;28;20033;-59
2021/04/15 12:43:15;;;;;;;5.50;2.25;;;10.40;62.10;;;;;;5004383;28;20034;-62
2021/04/15 12:45:53;;;;;;;6.47;2.72;;;10.60;60.20;;;;;;5007807;28;20387;-63
2021/04/15 12:48:43;;;;;;;6.47;2.28;;;10.70;61.60;;;;;;5005006;28;20038;-62
2021/04/15 12:51:12;;;;;;;7.43;2.45;;;10.90;61.20;;;;;;5002253;28;20554;-63
2021/04/15 12:53:42;;;;;;;4.50;2.20;;;10.80;61.80;;;;;;4997894;28;20046;-62
2021/04/15 12:56:09;;;;;;;5.20;2.22;;;10.80;63.10;;;;;;5000928;28;20049;-59
2021/04/15 12:58:35;;;;;;;6.30;2.67;;;10.80;62.10;;;;;;5000212;28;20026;-61
2021/04/15 13:01:01;;;;;;;4.57;2.53;;;10.70;62.80;;;;;;4999045;28;20032;-59
2021/04/15 13:03:28;;;;;;;7.10;2.90;;;10.70;59.60;;;;;;4998501;28;20045;-62
2021/04/15 13:06:01;;;;;;;6.38;2.65;;;10.50;60.70;;;;;;5000145;28;20030;-60
2021/04/15 13:08:38;;;;;;;4.43;2.63;;;10.30;56.00;;;;;;5000438;28;20034;-62
2021/04/15 13:11:26;;;;;;;5.57;2.40;;;10.20;57.70;;;;;;4996970;28;20146;-62
2021/04/15 13:14:01;;;;;;;7.03;2.30;;;10.20;58.90;;;;;;5001805;28;20120;-61
2021/04/15 13:16:35;;;;;;;4.43;2.20;;;10.30;59.90;;;;;;4998431;28;20064;-60
2021/04/15 13:19:10;;;;;;;3.50;2.05;;;10.20;59.10;;;;;;4996346;28;20045;-61
2021/04/15 13:21:55;;;;;;;7.05;2.60;;;10.30;58.70;;;;;;4999429;28;20029;-61
2021/04/15 13:24:45;;;;;;;3.75;2.00;;;10.50;58.50;;;;;;5001569;28;20029;-60
2021/04/15 13:27:36;;;;;;;3.63;2.10;;;10.70;55.80;;;;;;5004775;28;20034;-61
2021/04/15 13:30:23;;;;;;;7.03;2.00;;;10.80;57.20;;;;;;5007668;28;20030;-60
2021/04/15 13:33:08;;;;;;;8.05;2.67;;;10.80;54.40;;;;;;5003964;28;20514;-61
2021/04/15 13:35:59;;;;;;;3.72;2.10;;;10.90;53.30;;;;;;5004498;28;20046;-61
2021/04/15 13:41:05;;;;;;;4.05;1.92;;;11.30;53.40;;;;;;4995095;28;20058;-60
2021/04/15 13:43:40;;;;;;;8.30;3.45;;;11.30;51.50;;;;;;4997990;28;21780;-61
2021/04/15 13:46:24;;;;;;;7.22;2.42;;;11.50;51.70;;;;;;4998261;28;20037;-61
2021/04/15 13:49:00;;;;;;;6.03;2.30;;;11.50;53.60;;;;;;4999669;28;20104;-61
2021/04/15 13:51:31;;;;;;;4.43;2.30;;;11.70;54.60;;;;;;4995056;28;20028;-60
2021/04/15 13:54:19;;;;;;;4.18;2.03;;;11.60;53.10;;;;;;4993567;28;20022;-60
2021/04/15 13:56:53;;;;;;;5.68;2.65;;;11.50;50.40;;;;;;4996908;28;20072;-61